sensor_id;sensor_type;location;lat;lon;timestamp;temperature;humidity
15630;DHT22;7914;50.842;0.166;2023-10-08T00:01:21;14.70;100.00
15630;DHT22;7914;50.842;0.166;2023-10-08T00:03:47;14.70;100.00
15630;DHT22;7914;50.842;0.166;2023-10-08T00:06:20;14.60;100.00
15630;DHT22;7914;50.842;0.166;2023-10-08T00:08:50;14.60;100.00
15630;DHT22;7914;50.842;0.166;2023-10-08T00:11:16;14.50;100.00
15630;DHT22;7914;50.842;0.166;2023-10-08T00:13:43;14.50;100.00
15630;DHT22;7914;50.842;0.166;2023-10-08T00:16:13;14.40;100.00
15630;DHT22;7914;50.842;0.166;2023-10-08T00:18:43;14.30;100.00
15630;DHT22;7914;50.842;0.166;2023-10-08T00:21:19;14.30;100.00
15630;DHT22;7914;50.842;0.166;2023-10-08T00:23:46;14.30;100.00
15630;DHT22;7914;50.842;0.166;2023-10-08T00:26:18;14.20;100.00
15630;DHT22;7914;50.842;0.166;2023-10-08T00:28:48;14.20;100.00
15630;DHT22;7914;50.842;0.166;2023-10-08T00:31:17;14.20;100.00
15630;DHT22;7914;50.842;0.166;2023-10-08T00:33:43;14.20;100.00
15630;DHT22;7914;50.842;0.166;2023-10-08T00:36:12;14.20;100.00
15630;DHT22;7914;50.842;0.166;2023-10-08T00:38:48;14.20;100.00
15630;DHT22;7914;50.842;0.166;2023-10-08T00:41:28;14.20;100.00
15630;DHT22;7914;50.842;0.166;2023-10-08T00:43:56;14.10;100.00
15630;DHT22;7914;50.842;0.166;2023-10-08T00:46:25;14.10;100.00
15630;DHT22;7914;50.842;0.166;2023-10-08T00:49:00;14.10;100.00
15630;DHT22;7914;50.842;0.166;2023-10-08T00:51:43;14.10;100.00
15630;DHT22;7914;50.842;0.166;2023-10-08T00:54:12;14.00;100.00
15630;DHT22;7914;50.842;0.166;2023-10-08T00:56:48;13.90;100.00
15630;DHT22;7914;50.842;0.166;2023-10-08T00:59:26;13.80;100.00
15630;DHT22;7914;50.842;0.166;2023-10-08T01:01:52;13.80;100.00
15630;DHT22;7914;50.842;0.166;2023-10-08T01:04:32;13.80;100.00
15630;DHT22;7914;50.842;0.166;2023-10-08T01:07:03;13.90;100.00
15630;DHT22;7914;50.842;0.166;2023-10-08T01:09:39;13.90;100.00
15630;DHT22;7914;50.842;0.166;2023-10-08T01:12:21;13.80;100.00
15630;DHT22;7914;50.842;0.166;2023-10-08T01:14:59;13.80;100.00
15630;DHT22;7914;50.842;0.166;2023-10-08T01:17:39;13.80;100.00
15630;DHT22;7914;50.842;0.166;2023-10-08T01:20:18;13.80;100.00
15630;DHT22;7914;50.842;0.166;2023-10-08T01:23:16;13.90;100.00
15630;DHT22;7914;50.842;0.166;2023-10-08T01:25:53;13.80;100.00
15630;DHT22;7914;50.842;0.166;2023-10-08T01:28:38;13.80;100.00
15630;DHT22;7914;50.842;0.166;2023-10-08T01:31:04;13.80;100.00
15630;DHT22;7914;50.842;0.166;2023-10-08T01:33:30;13.80;100.00
15630;DHT22;7914;50.842;0.166;2023-10-08T01:36:04;13.90;100.00
15630;DHT22;7914;50.842;0.166;2023-10-08T01:38:31;14.00;100.00
15630;DHT22;7914;50.842;0.166;2023-10-08T01:41:00;14.00;100.00
15630;DHT22;7914;50.842;0.166;2023-10-08T01:43:31;13.90;100.00
15630;DHT22;7914;50.842;0.166;2023-10-08T01:45:56;13.90;100.00
15630;DHT22;7914;50.842;0.166;2023-10-08T01:48:22;13.80;100.00
15630;DHT22;7914;50.842;0.166;2023-10-08T01:50:59;13.70;100.00
15630;DHT22;7914;50.842;0.166;2023-10-08T01:53:29;13.80;100.00
15630;DHT22;7914;50.842;0.166;2023-10-08T01:55:56;13.70;100.00
15630;DHT22;7914;50.842;0.166;2023-10-08T01:58:23;13.60;100.00
15630;DHT22;7914;50.842;0.166;2023-10-08T02:00:49;13.60;100.00
15630;DHT22;7914;50.842;0.166;2023-10-08T02:03:18;13.60;100.00
15630;DHT22;7914;50.842;0.166;2023-10-08T02:05:47;13.60;100.00
15630;DHT22;7914;50.842;0.166;2023-10-08T02:08:13;13.60;100.00
15630;DHT22;7914;50.842;0.166;2023-10-08T02:10:41;13.60;100.00
15630;DHT22;7914;50.842;0.166;2023-10-08T02:13:09;13.60;100.00
15630;DHT22;7914;50.842;0.166;2023-10-08T02:15:42;13.70;100.00
15630;DHT22;7914;50.842;0.166;2023-10-08T02:18:08;13.70;100.00
15630;DHT22;7914;50.842;0.166;2023-10-08T02:20:34;13.60;100.00
15630;DHT22;7914;50.842;0.166;2023-10-08T02:23:00;13.60;100.00
15630;DHT22;7914;50.842;0.166;2023-10-08T02:25:26;13.50;100.00
15630;DHT22;7914;50.842;0.166;2023-10-08T02:27:52;13.40;100.00
15630;DHT22;7914;50.842;0.166;2023-10-08T02:30:18;13.40;100.00
15630;DHT22;7914;50.842;0.166;2023-10-08T02:32:44;13.40;100.00
15630;DHT22;7914;50.842;0.166;2023-10-08T02:35:12;13.40;100.00
15630;DHT22;7914;50.842;0.166;2023-10-08T02:37:39;13.40;100.00
15630;DHT22;7914;50.842;0.166;2023-10-08T02:40:08;13.40;100.00
15630;DHT22;7914;50.842;0.166;2023-10-08T02:42:55;13.40;100.00
15630;DHT22;7914;50.842;0.166;2023-10-08T02:45:28;13.30;100.00
15630;DHT22;7914;50.842;0.166;2023-10-08T02:47:54;13.40;100.00
15630;DHT22;7914;50.842;0.166;2023-10-08T02:50:21;13.50;100.00
15630;DHT22;7914;50.842;0.166;2023-10-08T02:52:50;13.60;100.00
15630;DHT22;7914;50.842;0.166;2023-10-08T02:55:17;13.50;100.00
15630;DHT22;7914;50.842;0.166;2023-10-08T02:57:50;13.40;100.00
15630;DHT22;7914;50.842;0.166;2023-10-08T03:00:17;13.50;100.00
15630;DHT22;7914;50.842;0.166;2023-10-08T03:02:46;13.50;100.00
15630;DHT22;7914;50.842;0.166;2023-10-08T03:05:12;13.50;100.00
15630;DHT22;7914;50.842;0.166;2023-10-08T03:07:41;13.30;100.00
15630;DHT22;7914;50.842;0.166;2023-10-08T03:10:07;13.30;100.00
15630;DHT22;7914;50.842;0.166;2023-10-08T03:12:46;13.40;100.00
15630;DHT22;7914;50.842;0.166;2023-10-08T03:15:13;13.30;100.00
15630;DHT22;7914;50.842;0.166;2023-10-08T03:17:53;13.30;100.00
15630;DHT22;7914;50.842;0.166;2023-10-08T03:20:20;13.30;100.00
15630;DHT22;7914;50.842;0.166;2023-10-08T03:23:16;13.20;100.00
15630;DHT22;7914;50.842;0.166;2023-10-08T03:25:59;13.10;100.00
15630;DHT22;7914;50.842;0.166;2023-10-08T03:28:27;13.00;100.00
15630;DHT22;7914;50.842;0.166;2023-10-08T03:30:54;13.00;100.00
15630;DHT22;7914;50.842;0.166;2023-10-08T03:33:34;13.10;100.00
15630;DHT22;7914;50.842;0.166;2023-10-08T03:36:04;13.10;100.00
15630;DHT22;7914;50.842;0.166;2023-10-08T03:38:59;13.10;100.00
15630;DHT22;7914;50.842;0.166;2023-10-08T03:41:35;13.10;100.00
15630;DHT22;7914;50.842;0.166;2023-10-08T03:44:06;13.10;100.00
15630;DHT22;7914;50.842;0.166;2023-10-08T03:46:38;13.00;100.00
15630;DHT22;7914;50.842;0.166;2023-10-08T03:49:15;13.00;100.00
15630;DHT22;7914;50.842;0.166;2023-10-08T03:51:44;13.00;100.00
15630;DHT22;7914;50.842;0.166;2023-10-08T03:54:10;13.00;100.00
15630;DHT22;7914;50.842;0.166;2023-10-08T03:56:42;13.00;100.00
15630;DHT22;7914;50.842;0.166;2023-10-08T03:59:15;13.10;100.00
15630;DHT22;7914;50.842;0.166;2023-10-08T04:02:01;13.20;100.00
15630;DHT22;7914;50.842;0.166;2023-10-08T04:04:43;13.00;100.00
15630;DHT22;7914;50.842;0.166;2023-10-08T04:07:25;13.00;100.00
15630;DHT22;7914;50.842;0.166;2023-10-08T04:10:05;12.90;100.00
15630;DHT22;7914;50.842;0.166;2023-10-08T04:12:33;12.90;100.00
15630;DHT22;7914;50.842;0.166;2023-10-08T04:15:09;12.80;100.00
15630;DHT22;7914;50.842;0.166;2023-10-08T04:17:38;12.70;100.00
15630;DHT22;7914;50.842;0.166;2023-10-08T04:20:14;12.70;100.00
15630;DHT22;7914;50.842;0.166;2023-10-08T04:23:00;12.70;100.00
15630;DHT22;7914;50.842;0.166;2023-10-08T04:25:29;12.70;100.00
15630;DHT22;7914;50.842;0.166;2023-10-08T04:27:56;12.60;100.00
15630;DHT22;7914;50.842;0.166;2023-10-08T04:30:35;12.60;100.00
15630;DHT22;7914;50.842;0.166;2023-10-08T04:33:02;12.50;100.00
15630;DHT22;7914;50.842;0.166;2023-10-08T04:35:36;12.40;100.00
15630;DHT22;7914;50.842;0.166;2023-10-08T04:38:05;12.40;100.00
15630;DHT22;7914;50.842;0.166;2023-10-08T04:40:37;12.40;100.00
15630;DHT22;7914;50.842;0.166;2023-10-08T04:43:08;12.40;100.00
15630;DHT22;7914;50.842;0.166;2023-10-08T04:45:36;12.40;100.00
15630;DHT22;7914;50.842;0.166;2023-10-08T04:48:04;12.30;100.00
15630;DHT22;7914;50.842;0.166;2023-10-08T04:50:35;12.40;100.00
15630;DHT22;7914;50.842;0.166;2023-10-08T04:53:02;12.40;100.00
15630;DHT22;7914;50.842;0.166;2023-10-08T04:55:34;12.30;100.00
15630;DHT22;7914;50.842;0.166;2023-10-08T04:58:07;12.30;100.00
15630;DHT22;7914;50.842;0.166;2023-10-08T05:00:45;12.30;100.00
15630;DHT22;7914;50.842;0.166;2023-10-08T05:03:25;12.30;100.00
15630;DHT22;7914;50.842;0.166;2023-10-08T05:05:57;12.30;100.00
15630;DHT22;7914;50.842;0.166;2023-10-08T05:08:34;12.30;100.00
15630;DHT22;7914;50.842;0.166;2023-10-08T05:11:29;12.30;100.00
15630;DHT22;7914;50.842;0.166;2023-10-08T05:14:15;12.30;100.00
15630;DHT22;7914;50.842;0.166;2023-10-08T05:17:08;12.30;100.00
15630;DHT22;7914;50.842;0.166;2023-10-08T05:19:48;12.20;100.00
15630;DHT22;7914;50.842;0.166;2023-10-08T05:22:46;12.20;100.00
15630;DHT22;7914;50.842;0.166;2023-10-08T05:25:21;12.20;100.00
15630;DHT22;7914;50.842;0.166;2023-10-08T05:27:46;12.10;100.00
15630;DHT22;7914;50.842;0.166;2023-10-08T05:30:12;12.00;100.00
15630;DHT22;7914;50.842;0.166;2023-10-08T05:32:45;12.00;100.00
15630;DHT22;7914;50.842;0.166;2023-10-08T05:35:35;12.00;100.00
15630;DHT22;7914;50.842;0.166;2023-10-08T05:38:17;12.00;100.00
15630;DHT22;7914;50.842;0.166;2023-10-08T05:40:56;12.00;100.00
15630;DHT22;7914;50.842;0.166;2023-10-08T05:46:11;11.90;100.00
15630;DHT22;7914;50.842;0.166;2023-10-08T05:48:54;11.90;100.00
15630;DHT22;7914;50.842;0.166;2023-10-08T05:51:42;11.90;100.00
15630;DHT22;7914;50.842;0.166;2023-10-08T05:54:16;11.90;100.00
15630;DHT22;7914;50.842;0.166;2023-10-08T05:57:07;11.90;100.00
15630;DHT22;7914;50.842;0.166;2023-10-08T06:02:21;12.00;100.00
15630;DHT22;7914;50.842;0.166;2023-10-08T06:05:13;12.00;100.00
15630;DHT22;7914;50.842;0.166;2023-10-08T06:07:51;11.90;100.00
15630;DHT22;7914;50.842;0.166;2023-10-08T06:10:26;11.90;100.00
15630;DHT22;7914;50.842;0.166;2023-10-08T06:15:51;11.90;100.00
15630;DHT22;7914;50.842;0.166;2023-10-08T06:18:32;11.90;100.00
15630;DHT22;7914;50.842;0.166;2023-10-08T06:21:02;11.90;100.00
15630;DHT22;7914;50.842;0.166;2023-10-08T06:23:38;11.90;100.00
15630;DHT22;7914;50.842;0.166;2023-10-08T06:26:04;12.00;100.00
15630;DHT22;7914;50.842;0.166;2023-10-08T06:28:35;12.00;100.00
15630;DHT22;7914;50.842;0.166;2023-10-08T06:31:02;12.10;100.00
15630;DHT22;7914;50.842;0.166;2023-10-08T06:33:31;12.00;100.00
15630;DHT22;7914;50.842;0.166;2023-10-08T06:36:02;12.20;100.00
15630;DHT22;7914;50.842;0.166;2023-10-08T06:38:31;12.30;100.00
15630;DHT22;7914;50.842;0.166;2023-10-08T06:41:03;12.30;100.00
15630;DHT22;7914;50.842;0.166;2023-10-08T06:43:55;12.30;100.00
15630;DHT22;7914;50.842;0.166;2023-10-08T06:46:39;12.40;100.00
15630;DHT22;7914;50.842;0.166;2023-10-08T06:49:07;12.50;100.00
15630;DHT22;7914;50.842;0.166;2023-10-08T06:51:38;12.70;100.00
15630;DHT22;7914;50.842;0.166;2023-10-08T06:54:04;12.70;100.00
15630;DHT22;7914;50.842;0.166;2023-10-08T06:56:35;12.80;100.00
15630;DHT22;7914;50.842;0.166;2023-10-08T06:59:01;12.90;100.00
15630;DHT22;7914;50.842;0.166;2023-10-08T07:01:27;13.00;100.00
15630;DHT22;7914;50.842;0.166;2023-10-08T07:04:08;13.10;100.00
15630;DHT22;7914;50.842;0.166;2023-10-08T07:06:41;13.20;100.00
15630;DHT22;7914;50.842;0.166;2023-10-08T07:09:10;13.20;100.00
15630;DHT22;7914;50.842;0.166;2023-10-08T07:11:51;13.30;100.00
15630;DHT22;7914;50.842;0.166;2023-10-08T07:14:23;13.30;100.00
15630;DHT22;7914;50.842;0.166;2023-10-08T07:16:53;13.40;100.00
15630;DHT22;7914;50.842;0.166;2023-10-08T07:19:21;13.50;100.00
15630;DHT22;7914;50.842;0.166;2023-10-08T07:21:49;13.60;100.00
15630;DHT22;7914;50.842;0.166;2023-10-08T07:24:19;13.80;100.00
15630;DHT22;7914;50.842;0.166;2023-10-08T07:26:47;13.80;100.00
15630;DHT22;7914;50.842;0.166;2023-10-08T07:29:16;14.00;100.00
15630;DHT22;7914;50.842;0.166;2023-10-08T07:31:46;14.00;100.00
15630;DHT22;7914;50.842;0.166;2023-10-08T07:34:15;14.20;100.00
15630;DHT22;7914;50.842;0.166;2023-10-08T07:36:43;14.30;100.00
15630;DHT22;7914;50.842;0.166;2023-10-08T07:39:09;14.50;100.00
15630;DHT22;7914;50.842;0.166;2023-10-08T07:41:49;14.70;100.00
15630;DHT22;7914;50.842;0.166;2023-10-08T07:44:15;14.90;100.00
15630;DHT22;7914;50.842;0.166;2023-10-08T07:46:41;15.00;100.00
15630;DHT22;7914;50.842;0.166;2023-10-08T07:49:06;15.00;100.00
15630;DHT22;7914;50.842;0.166;2023-10-08T07:51:32;15.10;100.00
15630;DHT22;7914;50.842;0.166;2023-10-08T07:53:59;15.30;100.00
15630;DHT22;7914;50.842;0.166;2023-10-08T07:56:25;15.50;100.00
15630;DHT22;7914;50.842;0.166;2023-10-08T07:58:52;15.60;100.00
15630;DHT22;7914;50.842;0.166;2023-10-08T08:01:22;15.60;100.00
15630;DHT22;7914;50.842;0.166;2023-10-08T08:03:50;15.70;100.00
15630;DHT22;7914;50.842;0.166;2023-10-08T08:06:17;15.80;100.00
15630;DHT22;7914;50.842;0.166;2023-10-08T08:08:43;15.90;100.00
15630;DHT22;7914;50.842;0.166;2023-10-08T08:11:10;15.90;100.00
15630;DHT22;7914;50.842;0.166;2023-10-08T08:13:43;15.80;100.00
15630;DHT22;7914;50.842;0.166;2023-10-08T08:16:10;15.90;100.00
15630;DHT22;7914;50.842;0.166;2023-10-08T08:18:50;15.90;100.00
15630;DHT22;7914;50.842;0.166;2023-10-08T08:21:17;16.10;100.00
15630;DHT22;7914;50.842;0.166;2023-10-08T08:23:48;16.10;100.00
15630;DHT22;7914;50.842;0.166;2023-10-08T08:26:16;16.30;100.00
15630;DHT22;7914;50.842;0.166;2023-10-08T08:29:17;16.40;100.00
15630;DHT22;7914;50.842;0.166;2023-10-08T08:31:43;16.60;100.00
15630;DHT22;7914;50.842;0.166;2023-10-08T08:34:12;16.60;100.00
15630;DHT22;7914;50.842;0.166;2023-10-08T08:36:45;16.70;100.00
15630;DHT22;7914;50.842;0.166;2023-10-08T08:39:15;16.80;100.00
15630;DHT22;7914;50.842;0.166;2023-10-08T08:42:03;16.80;100.00
15630;DHT22;7914;50.842;0.166;2023-10-08T08:44:35;16.90;100.00
15630;DHT22;7914;50.842;0.166;2023-10-08T08:47:05;17.10;100.00
15630;DHT22;7914;50.842;0.166;2023-10-08T08:49:35;17.20;100.00
15630;DHT22;7914;50.842;0.166;2023-10-08T08:52:03;17.40;100.00
15630;DHT22;7914;50.842;0.166;2023-10-08T08:54:29;17.60;100.00
15630;DHT22;7914;50.842;0.166;2023-10-08T08:57:01;17.70;100.00
15630;DHT22;7914;50.842;0.166;2023-10-08T08:59:30;18.00;100.00
15630;DHT22;7914;50.842;0.166;2023-10-08T09:01:59;18.20;100.00
15630;DHT22;7914;50.842;0.166;2023-10-08T09:04:32;18.40;100.00
15630;DHT22;7914;50.842;0.166;2023-10-08T09:07:01;18.70;100.00
15630;DHT22;7914;50.842;0.166;2023-10-08T09:09:33;18.80;100.00
15630;DHT22;7914;50.842;0.166;2023-10-08T09:11:59;19.00;100.00
15630;DHT22;7914;50.842;0.166;2023-10-08T09:14:26;19.10;100.00
15630;DHT22;7914;50.842;0.166;2023-10-08T09:16:53;19.20;100.00
15630;DHT22;7914;50.842;0.166;2023-10-08T09:19:20;19.20;100.00
15630;DHT22;7914;50.842;0.166;2023-10-08T09:22:04;19.30;100.00
15630;DHT22;7914;50.842;0.166;2023-10-08T09:24:40;19.50;100.00
15630;DHT22;7914;50.842;0.166;2023-10-08T09:27:10;19.70;100.00
15630;DHT22;7914;50.842;0.166;2023-10-08T09:29:40;19.90;100.00
15630;DHT22;7914;50.842;0.166;2023-10-08T09:32:09;19.80;100.00
15630;DHT22;7914;50.842;0.166;2023-10-08T09:34:35;19.80;100.00
15630;DHT22;7914;50.842;0.166;2023-10-08T09:37:02;19.90;100.00
15630;DHT22;7914;50.842;0.166;2023-10-08T09:39:30;20.00;100.00
15630;DHT22;7914;50.842;0.166;2023-10-08T09:42:02;20.20;100.00
15630;DHT22;7914;50.842;0.166;2023-10-08T09:44:29;20.30;100.00
15630;DHT22;7914;50.842;0.166;2023-10-08T09:47:06;20.30;100.00
15630;DHT22;7914;50.842;0.166;2023-10-08T09:49:36;20.40;100.00
15630;DHT22;7914;50.842;0.166;2023-10-08T09:52:04;20.50;100.00
15630;DHT22;7914;50.842;0.166;2023-10-08T09:54:42;20.70;100.00
15630;DHT22;7914;50.842;0.166;2023-10-08T09:57:09;20.90;100.00
15630;DHT22;7914;50.842;0.166;2023-10-08T09:59:35;21.00;100.00
15630;DHT22;7914;50.842;0.166;2023-10-08T10:02:04;21.10;100.00
15630;DHT22;7914;50.842;0.166;2023-10-08T10:04:31;21.20;100.00
15630;DHT22;7914;50.842;0.166;2023-10-08T10:06:58;21.40;100.00
15630;DHT22;7914;50.842;0.166;2023-10-08T10:09:25;21.50;100.00
15630;DHT22;7914;50.842;0.166;2023-10-08T10:11:53;21.50;100.00
15630;DHT22;7914;50.842;0.166;2023-10-08T10:14:22;21.50;100.00
15630;DHT22;7914;50.842;0.166;2023-10-08T10:17:12;21.60;100.00
15630;DHT22;7914;50.842;0.166;2023-10-08T10:19:40;21.70;100.00
15630;DHT22;7914;50.842;0.166;2023-10-08T10:22:13;21.50;100.00
15630;DHT22;7914;50.842;0.166;2023-10-08T10:24:41;21.60;100.00
15630;DHT22;7914;50.842;0.166;2023-10-08T10:27:15;21.70;100.00
15630;DHT22;7914;50.842;0.166;2023-10-08T10:29:44;21.60;100.00
15630;DHT22;7914;50.842;0.166;2023-10-08T10:32:15;21.80;100.00
15630;DHT22;7914;50.842;0.166;2023-10-08T10:34:43;22.00;100.00
15630;DHT22;7914;50.842;0.166;2023-10-08T10:37:09;22.20;100.00
15630;DHT22;7914;50.842;0.166;2023-10-08T10:39:56;22.20;100.00
15630;DHT22;7914;50.842;0.166;2023-10-08T10:42:26;21.80;100.00
15630;DHT22;7914;50.842;0.166;2023-10-08T10:44:54;21.80;100.00
15630;DHT22;7914;50.842;0.166;2023-10-08T10:47:21;21.60;100.00
15630;DHT22;7914;50.842;0.166;2023-10-08T10:49:49;21.60;100.00
15630;DHT22;7914;50.842;0.166;2023-10-08T10:52:28;21.60;100.00
15630;DHT22;7914;50.842;0.166;2023-10-08T10:55:13;21.60;100.00
15630;DHT22;7914;50.842;0.166;2023-10-08T10:57:40;21.70;100.00
15630;DHT22;7914;50.842;0.166;2023-10-08T11:00:08;21.70;100.00
15630;DHT22;7914;50.842;0.166;2023-10-08T11:02:53;21.70;100.00
15630;DHT22;7914;50.842;0.166;2023-10-08T11:05:26;21.70;100.00
15630;DHT22;7914;50.842;0.166;2023-10-08T11:07:57;21.70;100.00
15630;DHT22;7914;50.842;0.166;2023-10-08T11:10:37;21.70;100.00
15630;DHT22;7914;50.842;0.166;2023-10-08T11:13:05;21.90;100.00
15630;DHT22;7914;50.842;0.166;2023-10-08T11:15:40;22.00;100.00
15630;DHT22;7914;50.842;0.166;2023-10-08T11:18:13;21.80;100.00
15630;DHT22;7914;50.842;0.166;2023-10-08T11:20:42;21.90;100.00
15630;DHT22;7914;50.842;0.166;2023-10-08T11:23:51;22.00;100.00
15630;DHT22;7914;50.842;0.166;2023-10-08T11:26:23;22.20;100.00
15630;DHT22;7914;50.842;0.166;2023-10-08T11:28:59;22.20;100.00
15630;DHT22;7914;50.842;0.166;2023-10-08T11:31:29;22.30;100.00
15630;DHT22;7914;50.842;0.166;2023-10-08T11:34:00;22.40;100.00
15630;DHT22;7914;50.842;0.166;2023-10-08T11:36:28;22.40;100.00
15630;DHT22;7914;50.842;0.166;2023-10-08T11:39:08;22.40;100.00
15630;DHT22;7914;50.842;0.166;2023-10-08T11:41:34;22.60;100.00
15630;DHT22;7914;50.842;0.166;2023-10-08T11:44:15;22.60;100.00
15630;DHT22;7914;50.842;0.166;2023-10-08T11:46:45;22.70;100.00
15630;DHT22;7914;50.842;0.166;2023-10-08T11:49:20;22.80;100.00
15630;DHT22;7914;50.842;0.166;2023-10-08T11:51:51;22.90;100.00
15630;DHT22;7914;50.842;0.166;2023-10-08T11:54:21;23.00;100.00
15630;DHT22;7914;50.842;0.166;2023-10-08T11:56:49;22.90;100.00
15630;DHT22;7914;50.842;0.166;2023-10-08T11:59:15;22.90;100.00
15630;DHT22;7914;50.842;0.166;2023-10-08T12:01:43;22.80;100.00
15630;DHT22;7914;50.842;0.166;2023-10-08T12:04:10;22.80;100.00
15630;DHT22;7914;50.842;0.166;2023-10-08T12:06:41;22.80;100.00
15630;DHT22;7914;50.842;0.166;2023-10-08T12:09:13;22.80;100.00
15630;DHT22;7914;50.842;0.166;2023-10-08T12:11:42;22.80;100.00
15630;DHT22;7914;50.842;0.166;2023-10-08T12:14:09;22.80;100.00
15630;DHT22;7914;50.842;0.166;2023-10-08T12:16:36;22.70;100.00
15630;DHT22;7914;50.842;0.166;2023-10-08T12:19:02;22.60;100.00
15630;DHT22;7914;50.842;0.166;2023-10-08T12:21:41;22.40;100.00
15630;DHT22;7914;50.842;0.166;2023-10-08T12:24:06;22.30;100.00
15630;DHT22;7914;50.842;0.166;2023-10-08T12:26:36;22.20;100.00
15630;DHT22;7914;50.842;0.166;2023-10-08T12:29:02;22.30;100.00
15630;DHT22;7914;50.842;0.166;2023-10-08T12:31:27;22.30;100.00
15630;DHT22;7914;50.842;0.166;2023-10-08T12:33:54;22.30;100.00
15630;DHT22;7914;50.842;0.166;2023-10-08T12:36:26;22.30;100.00
15630;DHT22;7914;50.842;0.166;2023-10-08T12:38:52;22.30;100.00
15630;DHT22;7914;50.842;0.166;2023-10-08T12:41:27;22.30;100.00
15630;DHT22;7914;50.842;0.166;2023-10-08T12:43:53;22.40;100.00
15630;DHT22;7914;50.842;0.166;2023-10-08T12:46:20;22.30;100.00
15630;DHT22;7914;50.842;0.166;2023-10-08T12:48:50;22.30;100.00
15630;DHT22;7914;50.842;0.166;2023-10-08T12:51:23;22.20;100.00
15630;DHT22;7914;50.842;0.166;2023-10-08T12:53:53;22.20;100.00
15630;DHT22;7914;50.842;0.166;2023-10-08T12:56:29;22.20;100.00
15630;DHT22;7914;50.842;0.166;2023-10-08T12:59:02;22.10;100.00
15630;DHT22;7914;50.842;0.166;2023-10-08T13:01:33;22.20;100.00
15630;DHT22;7914;50.842;0.166;2023-10-08T13:04:01;22.20;100.00
15630;DHT22;7914;50.842;0.166;2023-10-08T13:06:33;22.00;95.30
15630;DHT22;7914;50.842;0.166;2023-10-08T13:09:03;21.90;93.80
15630;DHT22;7914;50.842;0.166;2023-10-08T13:11:35;21.80;93.70
15630;DHT22;7914;50.842;0.166;2023-10-08T13:14:00;21.70;93.10
15630;DHT22;7914;50.842;0.166;2023-10-08T13:16:27;21.50;92.00
15630;DHT22;7914;50.842;0.166;2023-10-08T13:19:03;21.40;97.00
15630;DHT22;7914;50.842;0.166;2023-10-08T13:21:29;21.30;95.60
15630;DHT22;7914;50.842;0.166;2023-10-08T13:23:55;21.20;97.30
15630;DHT22;7914;50.842;0.166;2023-10-08T13:26:26;21.10;98.90
15630;DHT22;7914;50.842;0.166;2023-10-08T13:28:57;21.10;100.00
15630;DHT22;7914;50.842;0.166;2023-10-08T13:31:24;21.00;100.00
15630;DHT22;7914;50.842;0.166;2023-10-08T13:33:50;21.00;100.00
15630;DHT22;7914;50.842;0.166;2023-10-08T13:36:17;20.90;100.00
15630;DHT22;7914;50.842;0.166;2023-10-08T13:38:44;20.90;100.00
15630;DHT22;7914;50.842;0.166;2023-10-08T13:41:12;20.80;100.00
15630;DHT22;7914;50.842;0.166;2023-10-08T13:43:45;20.80;100.00
15630;DHT22;7914;50.842;0.166;2023-10-08T13:46:15;20.80;98.50
15630;DHT22;7914;50.842;0.166;2023-10-08T13:48:44;20.90;98.10
15630;DHT22;7914;50.842;0.166;2023-10-08T13:51:21;20.90;99.60
15630;DHT22;7914;50.842;0.166;2023-10-08T13:53:58;20.80;98.80
15630;DHT22;7914;50.842;0.166;2023-10-08T13:56:28;20.80;100.00
15630;DHT22;7914;50.842;0.166;2023-10-08T13:58:57;20.90;100.00
15630;DHT22;7914;50.842;0.166;2023-10-08T14:01:33;20.90;95.60
15630;DHT22;7914;50.842;0.166;2023-10-08T14:03:59;20.90;94.60
15630;DHT22;7914;50.842;0.166;2023-10-08T14:06:37;20.90;94.90
15630;DHT22;7914;50.842;0.166;2023-10-08T14:09:06;21.00;96.20
15630;DHT22;7914;50.842;0.166;2023-10-08T14:11:34;20.90;93.80
15630;DHT22;7914;50.842;0.166;2023-10-08T14:14:00;20.90;90.00
15630;DHT22;7914;50.842;0.166;2023-10-08T14:16:39;21.00;89.40
15630;DHT22;7914;50.842;0.166;2023-10-08T14:19:11;20.90;90.20
15630;DHT22;7914;50.842;0.166;2023-10-08T14:21:42;20.80;92.90
15630;DHT22;7914;50.842;0.166;2023-10-08T14:24:26;20.80;91.80
15630;DHT22;7914;50.842;0.166;2023-10-08T14:26:55;20.70;94.90
15630;DHT22;7914;50.842;0.166;2023-10-08T14:29:24;20.70;96.00
15630;DHT22;7914;50.842;0.166;2023-10-08T14:31:52;20.70;93.10
15630;DHT22;7914;50.842;0.166;2023-10-08T14:34:22;20.70;91.60
15630;DHT22;7914;50.842;0.166;2023-10-08T14:37:08;20.60;92.60
15630;DHT22;7914;50.842;0.166;2023-10-08T14:39:53;20.60;91.50
15630;DHT22;7914;50.842;0.166;2023-10-08T14:42:37;20.60;91.10
15630;DHT22;7914;50.842;0.166;2023-10-08T14:45:29;20.60;88.80
15630;DHT22;7914;50.842;0.166;2023-10-08T14:48:01;20.60;87.60
15630;DHT22;7914;50.842;0.166;2023-10-08T14:50:28;20.60;87.90
15630;DHT22;7914;50.842;0.166;2023-10-08T14:52:57;20.50;85.30
15630;DHT22;7914;50.842;0.166;2023-10-08T14:55:25;20.40;86.40
15630;DHT22;7914;50.842;0.166;2023-10-08T14:57:51;20.40;87.70
15630;DHT22;7914;50.842;0.166;2023-10-08T15:00:18;20.30;91.20
15630;DHT22;7914;50.842;0.166;2023-10-08T15:02:54;20.20;91.40
15630;DHT22;7914;50.842;0.166;2023-10-08T15:05:23;20.30;96.10
15630;DHT22;7914;50.842;0.166;2023-10-08T15:07:49;20.20;96.10
15630;DHT22;7914;50.842;0.166;2023-10-08T15:10:15;20.20;96.00
15630;DHT22;7914;50.842;0.166;2023-10-08T15:12:43;20.00;96.40
15630;DHT22;7914;50.842;0.166;2023-10-08T15:15:09;20.00;96.70
15630;DHT22;7914;50.842;0.166;2023-10-08T15:17:45;19.90;97.00
15630;DHT22;7914;50.842;0.166;2023-10-08T15:20:14;19.80;98.20
15630;DHT22;7914;50.842;0.166;2023-10-08T15:22:42;19.80;99.00
15630;DHT22;7914;50.842;0.166;2023-10-08T15:25:13;19.80;99.40
15630;DHT22;7914;50.842;0.166;2023-10-08T15:27:39;19.80;100.00
15630;DHT22;7914;50.842;0.166;2023-10-08T15:30:10;19.70;100.00
15630;DHT22;7914;50.842;0.166;2023-10-08T15:32:42;19.70;99.50
15630;DHT22;7914;50.842;0.166;2023-10-08T15:35:18;19.60;100.00
15630;DHT22;7914;50.842;0.166;2023-10-08T15:37:49;19.60;100.00
15630;DHT22;7914;50.842;0.166;2023-10-08T15:40:15;19.50;100.00
15630;DHT22;7914;50.842;0.166;2023-10-08T15:42:51;19.50;100.00
15630;DHT22;7914;50.842;0.166;2023-10-08T15:45:18;19.50;100.00
15630;DHT22;7914;50.842;0.166;2023-10-08T15:47:44;19.40;100.00
15630;DHT22;7914;50.842;0.166;2023-10-08T15:50:10;19.40;100.00
15630;DHT22;7914;50.842;0.166;2023-10-08T15:52:36;19.40;100.00
15630;DHT22;7914;50.842;0.166;2023-10-08T15:55:04;19.40;100.00
15630;DHT22;7914;50.842;0.166;2023-10-08T15:57:30;19.30;100.00
15630;DHT22;7914;50.842;0.166;2023-10-08T15:59:56;19.30;100.00
15630;DHT22;7914;50.842;0.166;2023-10-08T16:02:24;19.20;100.00
15630;DHT22;7914;50.842;0.166;2023-10-08T16:04:49;19.20;100.00
15630;DHT22;7914;50.842;0.166;2023-10-08T16:07:15;19.20;100.00
15630;DHT22;7914;50.842;0.166;2023-10-08T16:09:41;19.10;100.00